Seward, AK

6:26 PM AKDT on April 24, 2015 (GMT -0800)
Seward | | Change Station
CLOSE
Current Station
Airport
Location: Seward,
Elevation: 20 ft
Nearby Weather Stations

Elev 20 ft 60.13 °N, 149.42 °W | Updated 33 minutes ago

Overcast
Overcast
45 °F
Feels Like 39 °F
N
12
Wind Variable Wind from South

Today
High -- | Low -- °F
--% Chance of Precip.
Yesterday
High -- | Low -- °F
Precip. -- in
6:14 AM 9:38 PM
Waxing Crescent, 41% visible
Pressure 29.78 in
Visibility 10.0 miles
Clouds Scattered Clouds 6000 ft
Mostly Cloudy 7500 ft
Overcast 10000 ft
Windchill 39 °F
Dew Point 33 °F
Humidity 63%
Rainfall 0.00 in
Snow Depth Not available.
UV 1 out of 12
Pollen Not available.
Air Quality Not available.
Flu Activity Sporadic
METAR PAWD 250153Z AUTO 18010KT 10SM SCT060 BKN075 OVC100 07/01 A2978 RMK AO2 SLP084 T00720006 TSNO

More Conditions Fewer Conditions

Pressure 29.78 in
Visibility 10.0 miles
Clouds Scattered Clouds 6000 ft
Mostly Cloudy 7500 ft
Overcast 10000 ft
Windchill 39 °F
Dew Point 33 °F
Humidity 63%
Rainfall 0.00 in
Snow Depth Not available.
UV 1 out of 12
Pollen Not available.
Air Quality Not available.
Flu Activity Sporadic
METAR PAWD 250153Z AUTO 18010KT 10SM SCT060 BKN075 OVC100 07/01 A2978 RMK AO2 SLP084 T00720006 TSNO

More Conditions Fewer Conditions

10-Day Weather Forecast

Almanac

Astronomy

Apr. 24, 2015 Rise Set
Actual Time
Civil Twilight
Nautical Twilight
Astronomical Twilight
Moon
Length of Visible Light
Length of Day
Tomorrow will be .
, % of the Moon is Illuminated

Today's Extremes

State Highs State Lows

Community

WunderPhotos

Upload Photos

1,816,574 photos uploaded!

WunderBlogs® & News

Nearby

Air Quality

  Air Quality AQ Index Pollutant
Not available.

Snow Depth

Station Depth Elevation

Earthquake Activity

City Distance Mag. Time & Date
Minimum magnitude displayed is 2.5.

Coastal Water Temperatures

Place Temperature

Stations

Nearby Weather Stations

Station Location Temp. Windchill Dew Point Humidity Wind Precip. Elev Updated Type